sensor_id;sensor_type;location;lat;lon;timestamp;P1;durP1;ratioP1;P2;durP2;ratioP2
38529;SDS011;24301;54.332;48.386;2023-07-13T00:00:38;3.35;;;2.08;;
38529;SDS011;24301;54.332;48.386;2023-07-13T00:03:04;3.97;;;2.10;;
38529;SDS011;24301;54.332;48.386;2023-07-13T00:05:30;3.50;;;2.08;;
38529;SDS011;24301;54.332;48.386;2023-07-13T00:07:57;2.42;;;1.80;;
38529;SDS011;24301;54.332;48.386;2023-07-13T00:10:23;4.60;;;2.13;;
38529;SDS011;24301;54.332;48.386;2023-07-13T00:12:49;2.20;;;1.90;;
38529;SDS011;24301;54.332;48.386;2023-07-13T00:15:19;3.55;;;2.10;;
38529;SDS011;24301;54.332;48.386;2023-07-13T00:17:48;3.10;;;2.17;;
38529;SDS011;24301;54.332;48.386;2023-07-13T00:20:15;2.67;;;2.10;;
38529;SDS011;24301;54.332;48.386;2023-07-13T00:22:42;3.00;;;1.98;;
38529;SDS011;24301;54.332;48.386;2023-07-13T00:25:10;2.38;;;1.70;;
38529;SDS011;24301;54.332;48.386;2023-07-13T00:27:36;3.33;;;2.17;;
38529;SDS011;24301;54.332;48.386;2023-07-13T00:30:02;2.42;;;2.00;;
38529;SDS011;24301;54.332;48.386;2023-07-13T00:32:30;4.18;;;2.28;;
38529;SDS011;24301;54.332;48.386;2023-07-13T00:34:56;3.63;;;2.28;;
38529;SDS011;24301;54.332;48.386;2023-07-13T00:37:23;4.63;;;2.67;;
38529;SDS011;24301;54.332;48.386;2023-07-13T00:39:50;3.67;;;2.45;;
38529;SDS011;24301;54.332;48.386;2023-07-13T00:42:15;5.95;;;2.10;;
38529;SDS011;24301;54.332;48.386;2023-07-13T00:44:59;5.32;;;2.50;;
38529;SDS011;24301;54.332;48.386;2023-07-13T00:47:26;2.70;;;2.13;;
38529;SDS011;24301;54.332;48.386;2023-07-13T00:49:52;4.45;;;2.80;;
38529;SDS011;24301;54.332;48.386;2023-07-13T00:52:18;3.88;;;2.70;;
38529;SDS011;24301;54.332;48.386;2023-07-13T00:54:45;4.60;;;3.33;;
38529;SDS011;24301;54.332;48.386;2023-07-13T00:57:13;5.28;;;3.03;;
38529;SDS011;24301;54.332;48.386;2023-07-13T00:59:42;3.67;;;2.75;;
38529;SDS011;24301;54.332;48.386;2023-07-13T01:02:12;4.82;;;3.15;;
38529;SDS011;24301;54.332;48.386;2023-07-13T01:04:38;6.28;;;3.20;;
38529;SDS011;24301;54.332;48.386;2023-07-13T01:07:04;6.57;;;4.57;;
38529;SDS011;24301;54.332;48.386;2023-07-13T01:09:32;8.18;;;5.20;;
38529;SDS011;24301;54.332;48.386;2023-07-13T01:14:31;5.32;;;4.03;;
38529;SDS011;24301;54.332;48.386;2023-07-13T01:16:57;4.45;;;3.50;;
38529;SDS011;24301;54.332;48.386;2023-07-13T01:22:06;7.65;;;3.63;;
38529;SDS011;24301;54.332;48.386;2023-07-13T01:24:39;5.38;;;3.40;;
38529;SDS011;24301;54.332;48.386;2023-07-13T01:27:08;5.55;;;3.67;;
38529;SDS011;24301;54.332;48.386;2023-07-13T01:29:36;4.35;;;3.45;;
38529;SDS011;24301;54.332;48.386;2023-07-13T01:32:10;6.90;;;4.40;;
38529;SDS011;24301;54.332;48.386;2023-07-13T01:34:38;5.90;;;4.63;;
38529;SDS011;24301;54.332;48.386;2023-07-13T01:37:08;8.77;;;5.47;;
38529;SDS011;24301;54.332;48.386;2023-07-13T01:39:35;8.23;;;3.83;;
38529;SDS011;24301;54.332;48.386;2023-07-13T01:42:02;5.30;;;3.65;;
38529;SDS011;24301;54.332;48.386;2023-07-13T01:44:28;7.00;;;4.72;;
38529;SDS011;24301;54.332;48.386;2023-07-13T01:46:53;8.00;;;4.57;;
38529;SDS011;24301;54.332;48.386;2023-07-13T01:49:19;6.40;;;3.90;;
38529;SDS011;24301;54.332;48.386;2023-07-13T01:51:45;7.93;;;4.22;;
38529;SDS011;24301;54.332;48.386;2023-07-13T01:54:11;6.03;;;3.60;;
38529;SDS011;24301;54.332;48.386;2023-07-13T01:56:37;9.13;;;6.75;;
38529;SDS011;24301;54.332;48.386;2023-07-13T01:59:04;7.38;;;5.63;;
38529;SDS011;24301;54.332;48.386;2023-07-13T02:01:29;8.40;;;5.30;;
38529;SDS011;24301;54.332;48.386;2023-07-13T02:03:55;9.18;;;8.25;;
38529;SDS011;24301;54.332;48.386;2023-07-13T02:06:21;12.00;;;7.00;;
38529;SDS011;24301;54.332;48.386;2023-07-13T02:08:47;12.38;;;9.90;;
38529;SDS011;24301;54.332;48.386;2023-07-13T02:11:13;11.18;;;7.07;;
38529;SDS011;24301;54.332;48.386;2023-07-13T02:13:39;8.50;;;6.40;;
38529;SDS011;24301;54.332;48.386;2023-07-13T02:16:05;9.93;;;7.05;;
38529;SDS011;24301;54.332;48.386;2023-07-13T02:18:31;14.57;;;9.68;;
38529;SDS011;24301;54.332;48.386;2023-07-13T02:20:58;13.40;;;10.70;;
38529;SDS011;24301;54.332;48.386;2023-07-13T02:23:24;13.02;;;11.55;;
38529;SDS011;24301;54.332;48.386;2023-07-13T02:25:53;15.90;;;12.82;;
38529;SDS011;24301;54.332;48.386;2023-07-13T02:28:26;16.45;;;13.57;;
38529;SDS011;24301;54.332;48.386;2023-07-13T02:30:52;20.45;;;16.48;;
38529;SDS011;24301;54.332;48.386;2023-07-13T02:33:18;20.10;;;14.88;;
38529;SDS011;24301;54.332;48.386;2023-07-13T02:35:43;16.48;;;14.60;;
38529;SDS011;24301;54.332;48.386;2023-07-13T02:38:09;12.43;;;9.70;;
38529;SDS011;24301;54.332;48.386;2023-07-13T02:40:36;10.90;;;7.97;;
38529;SDS011;24301;54.332;48.386;2023-07-13T02:43:02;8.38;;;6.43;;
38529;SDS011;24301;54.332;48.386;2023-07-13T02:45:30;6.95;;;5.40;;
38529;SDS011;24301;54.332;48.386;2023-07-13T02:47:56;7.22;;;5.75;;
38529;SDS011;24301;54.332;48.386;2023-07-13T02:50:22;8.15;;;5.30;;
38529;SDS011;24301;54.332;48.386;2023-07-13T02:52:48;6.18;;;4.35;;
38529;SDS011;24301;54.332;48.386;2023-07-13T02:55:14;6.35;;;4.45;;
38529;SDS011;24301;54.332;48.386;2023-07-13T02:57:40;4.85;;;3.97;;
38529;SDS011;24301;54.332;48.386;2023-07-13T03:00:06;8.00;;;3.75;;
38529;SDS011;24301;54.332;48.386;2023-07-13T03:02:33;4.88;;;3.50;;
38529;SDS011;24301;54.332;48.386;2023-07-13T03:05:00;5.43;;;3.13;;
38529;SDS011;24301;54.332;48.386;2023-07-13T03:07:29;4.65;;;2.90;;
38529;SDS011;24301;54.332;48.386;2023-07-13T03:09:56;4.78;;;2.70;;
38529;SDS011;24301;54.332;48.386;2023-07-13T03:12:26;5.60;;;2.85;;
38529;SDS011;24301;54.332;48.386;2023-07-13T03:14:52;7.57;;;3.40;;
38529;SDS011;24301;54.332;48.386;2023-07-13T03:17:18;6.03;;;3.50;;
38529;SDS011;24301;54.332;48.386;2023-07-13T03:19:44;5.22;;;2.72;;
38529;SDS011;24301;54.332;48.386;2023-07-13T03:22:10;6.80;;;3.33;;
38529;SDS011;24301;54.332;48.386;2023-07-13T03:24:38;4.57;;;2.95;;
38529;SDS011;24301;54.332;48.386;2023-07-13T03:27:05;6.28;;;2.80;;
38529;SDS011;24301;54.332;48.386;2023-07-13T03:29:33;6.28;;;2.90;;
38529;SDS011;24301;54.332;48.386;2023-07-13T03:31:59;5.40;;;2.90;;
38529;SDS011;24301;54.332;48.386;2023-07-13T03:34:25;4.03;;;3.45;;
38529;SDS011;24301;54.332;48.386;2023-07-13T03:36:53;2.42;;;2.20;;
38529;SDS011;24301;54.332;48.386;2023-07-13T03:39:20;2.55;;;2.25;;
38529;SDS011;24301;54.332;48.386;2023-07-13T03:41:49;3.33;;;2.38;;
38529;SDS011;24301;54.332;48.386;2023-07-13T03:44:18;3.35;;;2.22;;
38529;SDS011;24301;54.332;48.386;2023-07-13T03:46:48;3.47;;;2.70;;
38529;SDS011;24301;54.332;48.386;2023-07-13T03:49:14;6.15;;;2.67;;
38529;SDS011;24301;54.332;48.386;2023-07-13T03:51:40;3.97;;;2.60;;
38529;SDS011;24301;54.332;48.386;2023-07-13T03:54:06;4.85;;;2.67;;
38529;SDS011;24301;54.332;48.386;2023-07-13T03:56:32;5.45;;;2.72;;
38529;SDS011;24301;54.332;48.386;2023-07-13T03:59:00;6.25;;;3.00;;
38529;SDS011;24301;54.332;48.386;2023-07-13T04:01:29;3.47;;;2.70;;
38529;SDS011;24301;54.332;48.386;2023-07-13T04:03:55;5.68;;;3.75;;
38529;SDS011;24301;54.332;48.386;2023-07-13T04:06:25;4.47;;;3.28;;
38529;SDS011;24301;54.332;48.386;2023-07-13T04:08:54;5.80;;;2.97;;
38529;SDS011;24301;54.332;48.386;2023-07-13T04:11:24;5.57;;;3.10;;
38529;SDS011;24301;54.332;48.386;2023-07-13T04:13:52;5.28;;;3.35;;
38529;SDS011;24301;54.332;48.386;2023-07-13T04:16:18;7.10;;;3.22;;
38529;SDS011;24301;54.332;48.386;2023-07-13T04:18:45;4.45;;;3.17;;
38529;SDS011;24301;54.332;48.386;2023-07-13T04:21:12;6.75;;;3.30;;
38529;SDS011;24301;54.332;48.386;2023-07-13T04:23:41;5.72;;;3.70;;
38529;SDS011;24301;54.332;48.386;2023-07-13T04:26:07;6.22;;;3.88;;
38529;SDS011;24301;54.332;48.386;2023-07-13T04:28:34;7.18;;;3.78;;
38529;SDS011;24301;54.332;48.386;2023-07-13T04:31:01;6.45;;;4.70;;
38529;SDS011;24301;54.332;48.386;2023-07-13T04:33:27;6.85;;;3.80;;
38529;SDS011;24301;54.332;48.386;2023-07-13T04:35:53;10.82;;;3.70;;
38529;SDS011;24301;54.332;48.386;2023-07-13T04:38:23;7.18;;;3.22;;
38529;SDS011;24301;54.332;48.386;2023-07-13T04:40:51;4.28;;;2.60;;
38529;SDS011;24301;54.332;48.386;2023-07-13T04:43:17;10.32;;;3.67;;
38529;SDS011;24301;54.332;48.386;2023-07-13T04:45:44;11.55;;;4.63;;
38529;SDS011;24301;54.332;48.386;2023-07-13T04:48:10;9.25;;;3.70;;
38529;SDS011;24301;54.332;48.386;2023-07-13T04:50:36;13.65;;;5.65;;
38529;SDS011;24301;54.332;48.386;2023-07-13T04:53:03;17.05;;;6.22;;
38529;SDS011;24301;54.332;48.386;2023-07-13T04:55:33;8.15;;;3.83;;
38529;SDS011;24301;54.332;48.386;2023-07-13T04:57:59;8.40;;;4.43;;
38529;SDS011;24301;54.332;48.386;2023-07-13T05:00:25;12.07;;;4.97;;
38529;SDS011;24301;54.332;48.386;2023-07-13T05:02:53;14.02;;;5.63;;
38529;SDS011;24301;54.332;48.386;2023-07-13T05:05:20;7.80;;;5.60;;
38529;SDS011;24301;54.332;48.386;2023-07-13T05:07:46;10.63;;;5.97;;
38529;SDS011;24301;54.332;48.386;2023-07-13T05:10:12;11.23;;;7.00;;
38529;SDS011;24301;54.332;48.386;2023-07-13T05:12:38;10.75;;;6.50;;
38529;SDS011;24301;54.332;48.386;2023-07-13T05:15:04;11.85;;;6.47;;
38529;SDS011;24301;54.332;48.386;2023-07-13T05:17:31;11.32;;;7.25;;
38529;SDS011;24301;54.332;48.386;2023-07-13T05:19:56;11.38;;;6.82;;
38529;SDS011;24301;54.332;48.386;2023-07-13T05:22:22;12.70;;;7.40;;
38529;SDS011;24301;54.332;48.386;2023-07-13T05:24:48;10.55;;;7.57;;
38529;SDS011;24301;54.332;48.386;2023-07-13T05:27:14;12.18;;;8.35;;
38529;SDS011;24301;54.332;48.386;2023-07-13T05:29:43;13.75;;;7.85;;
38529;SDS011;24301;54.332;48.386;2023-07-13T05:32:09;17.52;;;7.50;;
38529;SDS011;24301;54.332;48.386;2023-07-13T05:34:35;12.75;;;8.43;;
38529;SDS011;24301;54.332;48.386;2023-07-13T05:37:01;11.52;;;7.47;;
38529;SDS011;24301;54.332;48.386;2023-07-13T05:39:27;14.32;;;9.15;;
38529;SDS011;24301;54.332;48.386;2023-07-13T05:41:53;13.15;;;8.30;;
38529;SDS011;24301;54.332;48.386;2023-07-13T05:44:19;12.00;;;7.50;;
38529;SDS011;24301;54.332;48.386;2023-07-13T05:46:44;8.23;;;5.85;;
38529;SDS011;24301;54.332;48.386;2023-07-13T05:49:10;13.15;;;5.00;;
38529;SDS011;24301;54.332;48.386;2023-07-13T05:51:37;7.00;;;4.28;;
38529;SDS011;24301;54.332;48.386;2023-07-13T05:54:03;8.32;;;4.18;;
38529;SDS011;24301;54.332;48.386;2023-07-13T05:56:28;11.30;;;5.13;;
38529;SDS011;24301;54.332;48.386;2023-07-13T05:58:55;5.97;;;3.55;;
38529;SDS011;24301;54.332;48.386;2023-07-13T06:01:22;7.18;;;3.92;;
38529;SDS011;24301;54.332;48.386;2023-07-13T06:03:49;5.45;;;3.35;;
38529;SDS011;24301;54.332;48.386;2023-07-13T06:06:15;5.50;;;3.45;;
38529;SDS011;24301;54.332;48.386;2023-07-13T06:08:41;6.45;;;3.58;;
38529;SDS011;24301;54.332;48.386;2023-07-13T06:11:10;6.55;;;3.28;;
38529;SDS011;24301;54.332;48.386;2023-07-13T06:13:39;4.32;;;2.80;;
38529;SDS011;24301;54.332;48.386;2023-07-13T06:16:05;4.40;;;2.88;;
38529;SDS011;24301;54.332;48.386;2023-07-13T06:18:33;4.40;;;3.03;;
38529;SDS011;24301;54.332;48.386;2023-07-13T06:20:59;2.33;;;1.80;;
38529;SDS011;24301;54.332;48.386;2023-07-13T06:23:25;3.22;;;2.03;;
38529;SDS011;24301;54.332;48.386;2023-07-13T06:25:51;3.30;;;2.03;;
38529;SDS011;24301;54.332;48.386;2023-07-13T06:28:17;5.97;;;2.30;;
38529;SDS011;24301;54.332;48.386;2023-07-13T06:30:43;3.60;;;2.42;;
38529;SDS011;24301;54.332;48.386;2023-07-13T06:33:09;5.50;;;2.45;;
38529;SDS011;24301;54.332;48.386;2023-07-13T06:35:35;7.63;;;2.80;;
38529;SDS011;24301;54.332;48.386;2023-07-13T06:38:01;4.38;;;2.20;;
38529;SDS011;24301;54.332;48.386;2023-07-13T06:40:27;4.20;;;2.75;;
38529;SDS011;24301;54.332;48.386;2023-07-13T06:42:55;4.18;;;2.67;;
38529;SDS011;24301;54.332;48.386;2023-07-13T06:45:23;4.70;;;2.78;;
38529;SDS011;24301;54.332;48.386;2023-07-13T06:47:48;3.03;;;2.22;;
38529;SDS011;24301;54.332;48.386;2023-07-13T06:50:14;3.92;;;2.40;;
38529;SDS011;24301;54.332;48.386;2023-07-13T06:52:40;4.25;;;3.40;;
38529;SDS011;24301;54.332;48.386;2023-07-13T06:55:06;4.32;;;3.28;;
38529;SDS011;24301;54.332;48.386;2023-07-13T06:57:33;5.20;;;3.08;;
38529;SDS011;24301;54.332;48.386;2023-07-13T06:59:59;4.28;;;3.03;;
38529;SDS011;24301;54.332;48.386;2023-07-13T07:02:25;5.53;;;2.63;;
38529;SDS011;24301;54.332;48.386;2023-07-13T07:04:51;4.93;;;2.85;;
38529;SDS011;24301;54.332;48.386;2023-07-13T07:07:17;3.75;;;2.03;;
38529;SDS011;24301;54.332;48.386;2023-07-13T07:09:43;2.63;;;2.05;;
38529;SDS011;24301;54.332;48.386;2023-07-13T07:12:13;2.78;;;2.00;;
38529;SDS011;24301;54.332;48.386;2023-07-13T07:14:47;2.97;;;2.10;;
38529;SDS011;24301;54.332;48.386;2023-07-13T07:17:13;2.38;;;1.98;;
38529;SDS011;24301;54.332;48.386;2023-07-13T07:19:39;4.45;;;2.33;;
38529;SDS011;24301;54.332;48.386;2023-07-13T07:22:07;2.47;;;1.90;;
38529;SDS011;24301;54.332;48.386;2023-07-13T07:24:33;8.52;;;2.35;;
38529;SDS011;24301;54.332;48.386;2023-07-13T07:26:59;4.07;;;1.85;;
38529;SDS011;24301;54.332;48.386;2023-07-13T07:29:25;3.60;;;1.80;;
38529;SDS011;24301;54.332;48.386;2023-07-13T07:31:53;2.42;;;1.90;;
38529;SDS011;24301;54.332;48.386;2023-07-13T07:34:19;4.50;;;2.42;;
38529;SDS011;24301;54.332;48.386;2023-07-13T07:36:45;3.20;;;2.40;;
38529;SDS011;24301;54.332;48.386;2023-07-13T07:39:11;3.33;;;2.53;;
38529;SDS011;24301;54.332;48.386;2023-07-13T07:41:37;4.78;;;2.03;;
38529;SDS011;24301;54.332;48.386;2023-07-13T07:44:05;2.72;;;1.92;;
38529;SDS011;24301;54.332;48.386;2023-07-13T07:46:35;2.58;;;1.80;;
38529;SDS011;24301;54.332;48.386;2023-07-13T07:49:01;2.47;;;1.80;;
38529;SDS011;24301;54.332;48.386;2023-07-13T07:51:33;1.98;;;1.77;;
38529;SDS011;24301;54.332;48.386;2023-07-13T07:53:59;3.03;;;1.80;;
38529;SDS011;24301;54.332;48.386;2023-07-13T07:56:25;2.40;;;1.60;;
38529;SDS011;24301;54.332;48.386;2023-07-13T07:58:51;1.55;;;1.30;;
38529;SDS011;24301;54.332;48.386;2023-07-13T08:01:17;2.50;;;1.40;;
38529;SDS011;24301;54.332;48.386;2023-07-13T08:03:43;3.47;;;1.60;;
38529;SDS011;24301;54.332;48.386;2023-07-13T08:06:09;1.98;;;1.58;;
38529;SDS011;24301;54.332;48.386;2023-07-13T08:08:35;4.63;;;2.70;;
38529;SDS011;24301;54.332;48.386;2023-07-13T08:11:04;5.78;;;2.13;;
38529;SDS011;24301;54.332;48.386;2023-07-13T08:13:31;3.50;;;1.42;;
38529;SDS011;24301;54.332;48.386;2023-07-13T08:15:57;2.20;;;1.52;;
38529;SDS011;24301;54.332;48.386;2023-07-13T08:18:24;4.03;;;2.28;;
38529;SDS011;24301;54.332;48.386;2023-07-13T08:20:50;5.18;;;2.33;;
38529;SDS011;24301;54.332;48.386;2023-07-13T08:23:15;6.15;;;2.85;;
38529;SDS011;24301;54.332;48.386;2023-07-13T08:25:43;5.43;;;2.17;;
38529;SDS011;24301;54.332;48.386;2023-07-13T08:28:16;3.75;;;1.98;;
38529;SDS011;24301;54.332;48.386;2023-07-13T08:30:42;3.92;;;2.42;;
38529;SDS011;24301;54.332;48.386;2023-07-13T08:33:08;2.88;;;2.22;;
38529;SDS011;24301;54.332;48.386;2023-07-13T08:35:33;5.47;;;2.72;;
38529;SDS011;24301;54.332;48.386;2023-07-13T08:37:59;7.45;;;3.00;;
38529;SDS011;24301;54.332;48.386;2023-07-13T08:40:26;4.22;;;2.40;;
38529;SDS011;24301;54.332;48.386;2023-07-13T08:42:57;5.05;;;2.33;;
38529;SDS011;24301;54.332;48.386;2023-07-13T08:48:26;7.20;;;2.47;;
38529;SDS011;24301;54.332;48.386;2023-07-13T08:51:21;3.63;;;2.35;;
38529;SDS011;24301;54.332;48.386;2023-07-13T08:53:57;4.30;;;2.17;;
38529;SDS011;24301;54.332;48.386;2023-07-13T08:56:29;2.97;;;2.10;;
38529;SDS011;24301;54.332;48.386;2023-07-13T08:59:19;4.35;;;2.08;;
38529;SDS011;24301;54.332;48.386;2023-07-13T09:04:59;3.15;;;2.00;;
38529;SDS011;24301;54.332;48.386;2023-07-13T09:10:32;4.57;;;2.75;;
38529;SDS011;24301;54.332;48.386;2023-07-13T09:13:07;3.45;;;2.30;;
38529;SDS011;24301;54.332;48.386;2023-07-13T09:15:44;2.88;;;2.08;;
38529;SDS011;24301;54.332;48.386;2023-07-13T09:21:00;1.50;;;1.40;;
38529;SDS011;24301;54.332;48.386;2023-07-13T09:23:28;3.85;;;1.42;;
38529;SDS011;24301;54.332;48.386;2023-07-13T09:26:00;4.60;;;1.73;;
38529;SDS011;24301;54.332;48.386;2023-07-13T09:31:14;2.60;;;1.50;;
38529;SDS011;24301;54.332;48.386;2023-07-13T09:33:43;3.75;;;1.80;;
38529;SDS011;24301;54.332;48.386;2023-07-13T09:36:21;3.78;;;1.60;;
38529;SDS011;24301;54.332;48.386;2023-07-13T09:38:53;3.00;;;1.73;;
38529;SDS011;24301;54.332;48.386;2023-07-13T09:44:37;1.98;;;1.58;;
38529;SDS011;24301;54.332;48.386;2023-07-13T09:47:17;1.65;;;1.27;;
38529;SDS011;24301;54.332;48.386;2023-07-13T09:49:47;1.30;;;1.20;;
38529;SDS011;24301;54.332;48.386;2023-07-13T09:52:20;2.33;;;1.52;;
38529;SDS011;24301;54.332;48.386;2023-07-13T09:54:48;2.78;;;1.00;;
38529;SDS011;24301;54.332;48.386;2023-07-13T09:57:16;2.00;;;1.10;;
38529;SDS011;24301;54.332;48.386;2023-07-13T09:59:45;1.65;;;1.38;;
38529;SDS011;24301;54.332;48.386;2023-07-13T10:04:57;1.50;;;1.27;;
38529;SDS011;24301;54.332;48.386;2023-07-13T10:07:29;1.33;;;1.23;;
38529;SDS011;24301;54.332;48.386;2023-07-13T10:10:00;1.67;;;0.90;;
38529;SDS011;24301;54.332;48.386;2023-07-13T10:12:29;1.38;;;1.27;;
38529;SDS011;24301;54.332;48.386;2023-07-13T10:15:00;2.05;;;1.60;;
38529;SDS011;24301;54.332;48.386;2023-07-13T10:17:29;1.05;;;0.95;;
38529;SDS011;24301;54.332;48.386;2023-07-13T10:19:59;1.50;;;1.35;;
38529;SDS011;24301;54.332;48.386;2023-07-13T10:25:39;1.17;;;1.10;;
38529;SDS011;24301;54.332;48.386;2023-07-13T10:28:27;4.80;;;3.00;;
38529;SDS011;24301;54.332;48.386;2023-07-13T10:30:57;3.25;;;1.80;;
38529;SDS011;24301;54.332;48.386;2023-07-13T10:33:26;4.00;;;1.40;;
38529;SDS011;24301;54.332;48.386;2023-07-13T10:36:03;2.63;;;1.33;;
38529;SDS011;24301;54.332;48.386;2023-07-13T10:38:40;1.33;;;1.00;;
38529;SDS011;24301;54.332;48.386;2023-07-13T10:41:08;2.22;;;0.90;;
38529;SDS011;24301;54.332;48.386;2023-07-13T10:43:43;1.92;;;1.10;;
38529;SDS011;24301;54.332;48.386;2023-07-13T10:46:18;1.10;;;0.90;;
38529;SDS011;24301;54.332;48.386;2023-07-13T10:48:48;1.42;;;1.23;;
38529;SDS011;24301;54.332;48.386;2023-07-13T10:51:21;2.85;;;1.00;;
38529;SDS011;24301;54.332;48.386;2023-07-13T10:54:33;1.83;;;1.05;;
38529;SDS011;24301;54.332;48.386;2023-07-13T11:03:38;1.55;;;0.80;;
38529;SDS011;24301;54.332;48.386;2023-07-13T11:06:37;1.70;;;0.88;;
38529;SDS011;24301;54.332;48.386;2023-07-13T11:11:56;2.22;;;0.90;;
38529;SDS011;24301;54.332;48.386;2023-07-13T11:14:35;1.73;;;0.90;;
38529;SDS011;24301;54.332;48.386;2023-07-13T11:19:51;1.73;;;1.10;;
38529;SDS011;24301;54.332;48.386;2023-07-13T11:22:24;1.10;;;1.00;;
38529;SDS011;24301;54.332;48.386;2023-07-13T11:27:51;0.98;;;0.80;;
38529;SDS011;24301;54.332;48.386;2023-07-13T11:33:13;0.95;;;0.85;;
38529;SDS011;24301;54.332;48.386;2023-07-13T11:41:04;3.08;;;1.17;;
38529;SDS011;24301;54.332;48.386;2023-07-13T11:43:37;2.53;;;0.88;;
38529;SDS011;24301;54.332;48.386;2023-07-13T11:46:12;1.50;;;1.00;;
38529;SDS011;24301;54.332;48.386;2023-07-13T11:48:47;0.95;;;0.68;;
38529;SDS011;24301;54.332;48.386;2023-07-13T11:51:29;1.10;;;0.90;;
38529;SDS011;24301;54.332;48.386;2023-07-13T11:54:03;0.60;;;0.60;;
38529;SDS011;24301;54.332;48.386;2023-07-13T11:56:43;2.00;;;0.70;;
38529;SDS011;24301;54.332;48.386;2023-07-13T11:59:10;1.15;;;1.00;;
38529;SDS011;24301;54.332;48.386;2023-07-13T12:01:42;0.82;;;0.82;;
38529;SDS011;24301;54.332;48.386;2023-07-13T12:06:47;2.22;;;0.90;;
38529;SDS011;24301;54.332;48.386;2023-07-13T12:09:29;1.35;;;0.90;;
38529;SDS011;24301;54.332;48.386;2023-07-13T12:11:56;1.17;;;0.90;;
38529;SDS011;24301;54.332;48.386;2023-07-13T12:14:25;0.93;;;0.70;;
38529;SDS011;24301;54.332;48.386;2023-07-13T12:16:52;0.80;;;0.60;;
38529;SDS011;24301;54.332;48.386;2023-07-13T12:19:20;0.73;;;0.73;;
38529;SDS011;24301;54.332;48.386;2023-07-13T12:21:50;0.85;;;0.80;;
38529;SDS011;24301;54.332;48.386;2023-07-13T12:24:20;1.27;;;1.17;;
38529;SDS011;24301;54.332;48.386;2023-07-13T12:26:55;0.93;;;0.60;;
38529;SDS011;24301;54.332;48.386;2023-07-13T12:29:29;2.78;;;1.30;;
38529;SDS011;24301;54.332;48.386;2023-07-13T12:31:56;4.63;;;1.55;;
38529;SDS011;24301;54.332;48.386;2023-07-13T12:34:23;4.13;;;1.58;;
38529;SDS011;24301;54.332;48.386;2023-07-13T12:36:51;5.80;;;2.13;;
38529;SDS011;24301;54.332;48.386;2023-07-13T12:39:20;6.10;;;1.80;;
38529;SDS011;24301;54.332;48.386;2023-07-13T12:41:50;3.38;;;2.45;;
38529;SDS011;24301;54.332;48.386;2023-07-13T12:53:50;0.80;;;0.80;;
38529;SDS011;24301;54.332;48.386;2023-07-13T12:56:35;1.00;;;0.90;;
38529;SDS011;24301;54.332;48.386;2023-07-13T12:59:46;3.72;;;3.30;;
38529;SDS011;24301;54.332;48.386;2023-07-13T13:01:59;3.38;;;2.90;;
38529;SDS011;24301;54.332;48.386;2023-07-13T13:04:28;4.70;;;2.63;;
38529;SDS011;24301;54.332;48.386;2023-07-13T13:07:00;2.85;;;1.40;;
38529;SDS011;24301;54.332;48.386;2023-07-13T13:09:28;1.30;;;0.98;;
38529;SDS011;24301;54.332;48.386;2023-07-13T13:11:58;1.40;;;0.93;;
38529;SDS011;24301;54.332;48.386;2023-07-13T13:14:27;0.88;;;0.85;;
38529;SDS011;24301;54.332;48.386;2023-07-13T13:16:55;0.98;;;0.98;;
38529;SDS011;24301;54.332;48.386;2023-07-13T13:19:27;1.92;;;1.05;;
38529;SDS011;24301;54.332;48.386;2023-07-13T13:21:54;1.42;;;0.90;;
38529;SDS011;24301;54.332;48.386;2023-07-13T13:24:26;3.35;;;1.33;;
38529;SDS011;24301;54.332;48.386;2023-07-13T13:26:55;1.83;;;1.30;;
38529;SDS011;24301;54.332;48.386;2023-07-13T13:29:24;5.55;;;1.73;;
38529;SDS011;24301;54.332;48.386;2023-07-13T13:31:51;2.65;;;1.42;;
38529;SDS011;24301;54.332;48.386;2023-07-13T13:34:21;2.15;;;1.15;;
38529;SDS011;24301;54.332;48.386;2023-07-13T13:36:54;5.82;;;1.85;;
38529;SDS011;24301;54.332;48.386;2023-07-13T13:39:27;8.10;;;2.22;;
38529;SDS011;24301;54.332;48.386;2023-07-13T13:42:00;2.55;;;1.45;;
38529;SDS011;24301;54.332;48.386;2023-07-13T13:44:26;2.65;;;1.23;;
38529;SDS011;24301;54.332;48.386;2023-07-13T13:46:52;2.00;;;1.33;;
38529;SDS011;24301;54.332;48.386;2023-07-13T13:49:23;3.15;;;1.33;;
38529;SDS011;24301;54.332;48.386;2023-07-13T13:51:52;2.95;;;1.70;;
38529;SDS011;24301;54.332;48.386;2023-07-13T13:54:20;5.32;;;1.45;;
38529;SDS011;24301;54.332;48.386;2023-07-13T13:56:49;3.00;;;1.52;;
38529;SDS011;24301;54.332;48.386;2023-07-13T13:59:21;2.83;;;1.50;;
38529;SDS011;24301;54.332;48.386;2023-07-13T14:01:47;1.77;;;1.00;;
38529;SDS011;24301;54.332;48.386;2023-07-13T14:04:18;2.20;;;1.00;;
38529;SDS011;24301;54.332;48.386;2023-07-13T14:06:49;3.47;;;1.10;;
38529;SDS011;24301;54.332;48.386;2023-07-13T14:09:16;1.98;;;1.67;;
38529;SDS011;24301;54.332;48.386;2023-07-13T14:11:48;1.83;;;1.40;;
38529;SDS011;24301;54.332;48.386;2023-07-13T14:14:19;2.00;;;1.08;;
38529;SDS011;24301;54.332;48.386;2023-07-13T14:16:51;1.45;;;1.35;;
38529;SDS011;24301;54.332;48.386;2023-07-13T14:19:24;3.38;;;1.08;;
38529;SDS011;24301;54.332;48.386;2023-07-13T14:21:51;1.65;;;1.10;;
38529;SDS011;24301;54.332;48.386;2023-07-13T14:24:18;1.10;;;1.00;;
38529;SDS011;24301;54.332;48.386;2023-07-13T14:26:45;0.95;;;0.88;;
38529;SDS011;24301;54.332;48.386;2023-07-13T14:29:13;2.42;;;1.38;;
38529;SDS011;24301;54.332;48.386;2023-07-13T14:31:42;2.10;;;1.42;;
38529;SDS011;24301;54.332;48.386;2023-07-13T14:34:11;3.83;;;1.77;;
38529;SDS011;24301;54.332;48.386;2023-07-13T14:36:43;5.10;;;2.00;;
38529;SDS011;24301;54.332;48.386;2023-07-13T14:39:14;2.92;;;1.20;;
38529;SDS011;24301;54.332;48.386;2023-07-13T14:41:43;3.13;;;2.45;;
38529;SDS011;24301;54.332;48.386;2023-07-13T14:47:06;6.95;;;3.72;;
38529;SDS011;24301;54.332;48.386;2023-07-13T14:52:20;6.05;;;3.42;;
38529;SDS011;24301;54.332;48.386;2023-07-13T14:58:12;7.00;;;3.83;;
38529;SDS011;24301;54.332;48.386;2023-07-13T15:03:32;5.07;;;2.55;;
38529;SDS011;24301;54.332;48.386;2023-07-13T15:06:02;2.42;;;1.60;;
38529;SDS011;24301;54.332;48.386;2023-07-13T15:08:35;4.95;;;1.65;;
38529;SDS011;24301;54.332;48.386;2023-07-13T15:11:31;3.55;;;1.58;;
38529;SDS011;24301;54.332;48.386;2023-07-13T15:13:59;3.10;;;1.70;;
38529;SDS011;24301;54.332;48.386;2023-07-13T15:16:31;3.50;;;1.60;;
38529;SDS011;24301;54.332;48.386;2023-07-13T15:19:08;3.88;;;1.90;;
38529;SDS011;24301;54.332;48.386;2023-07-13T15:21:48;5.57;;;1.30;;
38529;SDS011;24301;54.332;48.386;2023-07-13T15:24:29;2.40;;;1.50;;
38529;SDS011;24301;54.332;48.386;2023-07-13T15:27:28;1.77;;;1.52;;
38529;SDS011;24301;54.332;48.386;2023-07-13T15:30:20;3.85;;;1.63;;
38529;SDS011;24301;54.332;48.386;2023-07-13T15:33:58;5.78;;;3.08;;
38529;SDS011;24301;54.332;48.386;2023-07-13T15:40:04;5.90;;;2.25;;
38529;SDS011;24301;54.332;48.386;2023-07-13T15:42:59;2.80;;;1.88;;
38529;SDS011;24301;54.332;48.386;2023-07-13T15:45:25;2.50;;;1.70;;
38529;SDS011;24301;54.332;48.386;2023-07-13T15:47:51;3.72;;;1.40;;
38529;SDS011;24301;54.332;48.386;2023-07-13T15:50:21;2.17;;;1.35;;
38529;SDS011;24301;54.332;48.386;2023-07-13T15:52:51;2.78;;;1.52;;
38529;SDS011;24301;54.332;48.386;2023-07-13T15:55:20;3.28;;;1.33;;
38529;SDS011;24301;54.332;48.386;2023-07-13T15:58:14;3.00;;;1.27;;
38529;SDS011;24301;54.332;48.386;2023-07-13T16:00:40;4.43;;;1.20;;
38529;SDS011;24301;54.332;48.386;2023-07-13T16:03:08;2.38;;;1.35;;
38529;SDS011;24301;54.332;48.386;2023-07-13T16:05:35;1.55;;;1.20;;